createdAt,value
2022-11-18T00:01:11.946Z,7.75
2022-11-18T00:03:46.146Z,7.72
2022-11-18T00:06:21.035Z,7.69
2022-11-18T00:08:54.472Z,7.66
2022-11-18T00:11:46.296Z,7.61
2022-11-18T00:14:22.446Z,7.55
2022-11-18T00:16:57.553Z,7.51
2022-11-18T00:19:32.522Z,7.54
2022-11-18T00:22:05.853Z,7.55
2022-11-18T00:24:39.256Z,7.52
2022-11-18T00:27:11.994Z,7.52
2022-11-18T00:29:44.696Z,7.53
2022-11-18T00:32:17.445Z,7.55
2022-11-18T00:34:50.171Z,7.57
2022-11-18T00:37:22.399Z,7.58
2022-11-18T00:39:55.258Z,7.56
2022-11-18T00:42:45.021Z,7.55
2022-11-18T00:45:18.049Z,7.57
2022-11-18T00:47:51.236Z,7.59
2022-11-18T00:50:24.618Z,7.61
2022-11-18T00:52:56.823Z,7.62
2022-11-18T00:55:30.728Z,7.64
2022-11-18T00:58:03.130Z,7.61
2022-11-18T01:00:35.814Z,7.62
2022-11-18T01:03:08.200Z,7.64
2022-11-18T01:05:40.935Z,7.63
2022-11-18T01:08:14.737Z,7.63
2022-11-18T01:10:48.741Z,7.63
2022-11-18T01:13:24.273Z,7.57
2022-11-18T01:15:59.091Z,7.51
2022-11-18T01:18:33.661Z,7.48
2022-11-18T01:21:07.569Z,7.46
2022-11-18T01:23:40.325Z,7.46
2022-11-18T01:26:15.842Z,7.47
2022-11-18T01:28:49.358Z,7.47
2022-11-18T01:31:22.545Z,7.35
2022-11-18T01:33:55.044Z,7.26
2022-11-18T01:36:28.711Z,7.23
2022-11-18T01:39:01.881Z,7.22
2022-11-18T01:41:35.049Z,7.23
2022-11-18T01:44:22.259Z,7.24
2022-11-18T01:46:54.521Z,7.26
2022-11-18T01:49:27.124Z,7.27
2022-11-18T01:52:01.345Z,7.27
2022-11-18T01:54:40.875Z,7.25
2022-11-18T01:57:19.017Z,7.25
2022-11-18T01:59:54.955Z,7.23
2022-11-18T02:02:26.189Z,7.23
2022-11-18T02:05:00.685Z,7.21
2022-11-18T02:07:36.302Z,7.20
2022-11-18T02:10:18.291Z,7.18
2022-11-18T02:12:52.406Z,7.11
2022-11-18T02:15:34.708Z,7.03
2022-11-18T02:18:15.823Z,7.00
2022-11-18T02:20:51.479Z,7.02
2022-11-18T02:23:59.529Z,7.03
2022-11-18T02:27:08.225Z,7.03
2022-11-18T02:29:46.678Z,7.07
2022-11-18T02:32:25.949Z,7.10
2022-11-18T02:35:04.400Z,7.09
2022-11-18T02:37:43.862Z,7.11
2022-11-18T02:40:21.709Z,7.12
2022-11-18T02:43:01.088Z,7.15
2022-11-18T02:45:35.293Z,7.18
2022-11-18T02:48:12.478Z,7.20
2022-11-18T02:50:46.923Z,7.22
2022-11-18T02:53:22.653Z,7.25
2022-11-18T02:55:56.727Z,7.31
2022-11-18T02:58:29.385Z,7.35
2022-11-18T03:01:03.135Z,7.39
2022-11-18T03:03:37.372Z,7.43
2022-11-18T03:06:21.266Z,7.46
2022-11-18T03:09:00.663Z,7.48
2022-11-18T03:11:38.985Z,7.51
2022-11-18T03:14:26.202Z,7.56
2022-11-18T03:17:02.697Z,7.62
2022-11-18T03:19:59.819Z,7.66
2022-11-18T03:22:39.288Z,7.71
2022-11-18T03:25:17.743Z,7.76
2022-11-18T03:27:55.933Z,7.79
2022-11-18T03:30:31.979Z,7.77
2022-11-18T03:33:10.952Z,7.70
2022-11-18T03:35:47.932Z,7.64
2022-11-18T03:38:25.022Z,7.59
2022-11-18T03:41:01.201Z,7.58
2022-11-18T03:43:39.237Z,7.54
2022-11-18T03:46:16.776Z,7.50
2022-11-18T03:48:53.217Z,7.53
2022-11-18T03:51:32.232Z,7.56
2022-11-18T03:54:10.332Z,7.59
2022-11-18T03:56:47.952Z,7.62
2022-11-18T03:59:25.237Z,7.66
2022-11-18T04:02:03.152Z,7.71
2022-11-18T04:04:36.794Z,7.75
2022-11-18T04:07:18.018Z,7.79
2022-11-18T04:09:56.696Z,7.84
2022-11-18T04:12:32.923Z,7.86
2022-11-18T04:15:06.160Z,7.86
2022-11-18T04:17:41.997Z,7.86
2022-11-18T04:20:20.082Z,7.87
2022-11-18T04:22:52.467Z,7.87
2022-11-18T04:25:25.748Z,7.88
2022-11-18T04:27:58.009Z,7.91
2022-11-18T04:30:31.628Z,7.92
2022-11-18T04:33:05.397Z,7.94
2022-11-18T04:35:37.700Z,7.96
2022-11-18T04:38:10.840Z,7.98
2022-11-18T04:40:44.096Z,7.96
2022-11-18T04:43:17.629Z,7.94
2022-11-18T04:45:49.914Z,7.93
2022-11-18T04:48:22.271Z,7.94
2022-11-18T04:50:54.466Z,7.95
2022-11-18T04:53:26.909Z,7.97
2022-11-18T04:56:05.532Z,8.00
2022-11-18T04:58:38.276Z,8.03
2022-11-18T05:01:11.556Z,8.06
2022-11-18T05:03:50.315Z,8.07
2022-11-18T05:06:23.420Z,8.09
2022-11-18T05:08:55.920Z,8.10
2022-11-18T05:11:46.272Z,8.12
2022-11-18T05:14:19.507Z,8.13
2022-11-18T05:16:52.407Z,8.14
2022-11-18T05:19:24.820Z,8.14
2022-11-18T05:21:58.127Z,8.16
2022-11-18T05:24:31.186Z,8.17
2022-11-18T05:27:04.443Z,8.15
2022-11-18T05:29:36.835Z,8.14
2022-11-18T05:32:10.475Z,8.15
2022-11-18T05:34:44.360Z,8.18
2022-11-18T05:37:16.732Z,8.20
2022-11-18T05:39:49.516Z,8.22
2022-11-18T05:42:39.408Z,8.23
2022-11-18T05:45:12.329Z,8.22
2022-11-18T05:47:58.433Z,8.22
2022-11-18T05:50:31.461Z,8.23
2022-11-18T05:53:05.397Z,8.26
2022-11-18T05:55:42.027Z,8.29
2022-11-18T05:58:15.567Z,8.31
2022-11-18T06:00:51.189Z,8.32
2022-11-18T06:03:30.747Z,8.34
2022-11-18T06:06:06.853Z,8.37
2022-11-18T06:08:44.656Z,8.39
2022-11-18T06:11:20.899Z,8.41
2022-11-18T06:13:55.421Z,8.40
2022-11-18T06:16:33.389Z,8.42
2022-11-18T06:19:09.490Z,8.45
2022-11-18T06:21:42.655Z,8.47
2022-11-18T06:24:16.717Z,8.50
2022-11-18T06:26:51.201Z,8.51
2022-11-18T06:29:27.941Z,8.49
2022-11-18T06:32:00.573Z,8.49
2022-11-18T06:34:38.205Z,8.49
2022-11-18T06:37:18.598Z,8.49
2022-11-18T06:39:51.023Z,8.51
2022-11-18T06:42:40.939Z,8.53
2022-11-18T06:45:15.123Z,8.54
2022-11-18T06:47:47.520Z,8.56
2022-11-18T06:50:20.584Z,8.60
2022-11-18T06:52:53.248Z,8.64
2022-11-18T06:55:25.572Z,8.69
2022-11-18T06:58:00.535Z,8.76
2022-11-18T07:00:33.373Z,8.81
2022-11-18T07:03:07.384Z,8.87
2022-11-18T07:05:40.672Z,8.95
2022-11-18T07:08:13.720Z,9.03
2022-11-18T07:10:55.683Z,9.10
2022-11-18T07:13:28.292Z,9.16
2022-11-18T07:16:06.667Z,9.21
2022-11-18T07:18:41.751Z,9.29
2022-11-18T07:21:16.929Z,9.36
2022-11-18T07:23:50.484Z,9.43
2022-11-18T07:26:23.308Z,9.45
2022-11-18T07:28:56.949Z,9.51
2022-11-18T07:31:29.630Z,9.64
2022-11-18T07:34:02.335Z,9.77
2022-11-18T07:36:36.185Z,9.92
2022-11-18T07:39:10.749Z,10.06
2022-11-18T07:41:43.591Z,10.21
2022-11-18T07:44:17.671Z,10.36
2022-11-18T07:46:50.074Z,10.49
2022-11-18T07:49:22.827Z,10.57
2022-11-18T07:51:55.134Z,10.62
2022-11-18T07:54:27.842Z,10.73
2022-11-18T07:57:00.263Z,10.87
2022-11-18T07:59:33.899Z,11.02
2022-11-18T08:02:07.152Z,11.22
2022-11-18T08:04:41.776Z,11.44
2022-11-18T08:07:14.356Z,11.64
2022-11-18T08:09:46.812Z,11.79
2022-11-18T08:12:19.123Z,12.01
2022-11-18T08:14:51.783Z,12.23
2022-11-18T08:17:24.115Z,12.40
2022-11-18T08:19:56.925Z,12.58
2022-11-18T08:22:29.644Z,12.79
2022-11-18T08:25:02.271Z,12.97
2022-11-18T08:27:35.457Z,13.19
2022-11-18T08:30:09.247Z,13.39
2022-11-18T08:32:41.965Z,13.58
2022-11-18T08:35:14.868Z,13.77
2022-11-18T08:37:47.357Z,13.95
2022-11-18T08:40:20.663Z,14.14
2022-11-18T08:42:53.406Z,14.28
2022-11-18T08:45:25.771Z,14.43
2022-11-18T08:47:58.106Z,14.55
2022-11-18T08:50:30.597Z,14.62
2022-11-18T08:53:02.792Z,14.73
2022-11-18T08:55:35.017Z,14.85
2022-11-18T08:58:07.437Z,14.95
2022-11-18T09:00:40.189Z,14.99
2022-11-18T09:03:12.490Z,15.06
2022-11-18T09:05:44.853Z,15.16
2022-11-18T09:08:17.665Z,15.25
2022-11-18T09:10:50.164Z,15.32
2022-11-18T09:13:49.762Z,15.46
2022-11-18T09:16:14.670Z,15.66
2022-11-18T09:18:45.700Z,15.88
2022-11-18T09:21:18.394Z,16.10
2022-11-18T09:23:50.686Z,16.24
2022-11-18T09:26:24.469Z,16.29
2022-11-18T09:28:57.686Z,16.29
2022-11-18T09:31:30.819Z,16.28
2022-11-18T09:34:03.650Z,16.25
2022-11-18T09:36:36.281Z,16.09
2022-11-18T09:39:08.699Z,15.91
2022-11-18T09:41:48.583Z,15.77
2022-11-18T09:44:42.362Z,15.63
2022-11-18T09:47:26.313Z,15.54
2022-11-18T09:50:14.933Z,15.44
2022-11-18T09:53:05.661Z,15.35
2022-11-18T09:55:41.178Z,15.32
2022-11-18T09:58:24.580Z,15.27
2022-11-18T10:00:56.825Z,15.33
2022-11-18T10:03:34.246Z,15.52
2022-11-18T10:06:23.603Z,15.76
2022-11-18T10:09:06.979Z,15.98
2022-11-18T10:11:52.003Z,15.95
2022-11-18T10:14:41.327Z,15.98
2022-11-18T10:17:26.372Z,16.07
2022-11-18T10:20:21.820Z,16.09
2022-11-18T10:22:59.314Z,16.08
2022-11-18T10:25:31.739Z,16.08
2022-11-18T10:28:15.138Z,16.18
2022-11-18T10:30:47.836Z,16.32
2022-11-18T10:33:31.094Z,16.46
2022-11-18T10:36:20.156Z,16.60
2022-11-18T10:39:06.193Z,16.65
2022-11-18T10:41:48.153Z,16.67
2022-11-18T10:44:33.557Z,16.79
2022-11-18T10:47:33.095Z,16.85
2022-11-18T10:50:36.047Z,16.79
2022-11-18T10:53:26.024Z,16.61
2022-11-18T10:56:03.487Z,16.47
2022-11-18T10:58:42.127Z,16.37
2022-11-18T11:01:24.605Z,16.28
2022-11-18T11:04:03.759Z,16.22
2022-11-18T11:06:38.900Z,16.21
2022-11-18T11:09:25.268Z,16.16
2022-11-18T11:12:05.326Z,16.08
2022-11-18T11:14:51.434Z,15.95
2022-11-18T11:17:31.707Z,15.73
2022-11-18T11:20:16.081Z,15.57
2022-11-18T11:22:48.970Z,15.40
2022-11-18T11:25:29.404Z,15.29
2022-11-18T11:28:17.181Z,15.18
2022-11-18T11:31:01.799Z,15.02
2022-11-18T11:33:44.121Z,14.78
2022-11-18T11:36:40.100Z,14.61
2022-11-18T11:39:33.311Z,14.53
2022-11-18T11:42:15.995Z,14.48
2022-11-18T11:44:58.837Z,14.43
2022-11-18T11:47:51.741Z,14.39
2022-11-18T11:51:01.641Z,14.39
2022-11-18T11:54:04.367Z,14.41
2022-11-18T11:56:42.731Z,14.44
2022-11-18T11:59:26.819Z,14.46
2022-11-18T12:02:34.767Z,14.45
2022-11-18T12:05:18.639Z,14.38
2022-11-18T12:07:57.002Z,14.31
2022-11-18T12:10:44.391Z,14.26
2022-11-18T12:13:31.193Z,14.22
2022-11-18T12:16:13.696Z,14.19
2022-11-18T12:18:52.711Z,14.17
2022-11-18T12:22:00.578Z,14.13
2022-11-18T12:24:38.559Z,14.10
2022-11-18T12:27:16.323Z,14.05
2022-11-18T12:30:00.153Z,14.03
2022-11-18T12:32:42.989Z,14.00
2022-11-18T12:35:30.611Z,13.95
2022-11-18T12:38:04.954Z,13.87
2022-11-18T12:40:48.773Z,13.81
2022-11-18T12:44:05.910Z,13.78
2022-11-18T12:46:58.262Z,13.76
2022-11-18T12:50:13.574Z,13.75
2022-11-18T12:52:59.693Z,13.74
2022-11-18T12:55:34.753Z,13.69
2022-11-18T12:58:21.455Z,13.62
2022-11-18T13:01:06.425Z,13.61
2022-11-18T13:03:39.281Z,13.59
2022-11-18T13:06:23.499Z,13.61
2022-11-18T13:09:00.038Z,13.60
2022-11-18T13:11:46.436Z,13.60
2022-11-18T13:14:39.734Z,13.56
2022-11-18T13:17:50.316Z,13.55
2022-11-18T13:20:31.499Z,13.55
2022-11-18T13:23:23.829Z,13.52
2022-11-18T13:25:57.610Z,13.49
2022-11-18T13:28:38.602Z,13.46
2022-11-18T13:31:19.027Z,13.41
2022-11-18T13:33:53.592Z,13.39
2022-11-18T13:36:27.732Z,13.36
2022-11-18T13:39:02.029Z,13.33
2022-11-18T13:41:36.613Z,13.30
2022-11-18T13:44:23.047Z,13.26
2022-11-18T13:47:01.258Z,13.25
2022-11-18T13:49:50.260Z,13.22
2022-11-18T13:52:30.479Z,13.20
2022-11-18T13:55:08.672Z,13.21
2022-11-18T13:57:42.741Z,13.19
2022-11-18T14:00:25.567Z,13.15
2022-11-18T14:03:02.298Z,13.12
2022-11-18T14:05:35.421Z,13.09
2022-11-18T14:08:21.754Z,13.06
2022-11-18T14:10:52.827Z,13.03
2022-11-18T14:13:29.412Z,12.98
2022-11-18T14:16:04.450Z,12.96
2022-11-18T14:18:38.506Z,12.92
2022-11-18T14:21:15.090Z,12.88
2022-11-18T14:23:47.844Z,12.84
2022-11-18T14:26:30.566Z,12.80
2022-11-18T14:29:05.655Z,12.76
2022-11-18T14:31:38.362Z,12.72
2022-11-18T14:34:23.642Z,12.67
2022-11-18T14:36:57.099Z,12.63
2022-11-18T14:39:32.266Z,12.60
2022-11-18T14:42:05.842Z,12.57
2022-11-18T14:44:38.654Z,12.50
2022-11-18T14:47:19.950Z,12.39
2022-11-18T14:49:52.614Z,12.24
2022-11-18T14:52:24.833Z,12.11
2022-11-18T14:54:58.075Z,12.03
2022-11-18T14:57:32.186Z,11.92
2022-11-18T15:00:06.774Z,11.87
2022-11-18T15:02:39.284Z,11.84
2022-11-18T15:05:12.620Z,11.83
2022-11-18T15:07:45.533Z,11.79
2022-11-18T15:10:19.015Z,11.75
2022-11-18T15:12:51.998Z,11.68
2022-11-18T15:15:25.164Z,11.65
2022-11-18T15:17:58.202Z,11.66
2022-11-18T15:20:32.214Z,11.67
2022-11-18T15:23:05.939Z,11.66
2022-11-18T15:25:38.384Z,11.63
2022-11-18T15:28:12.873Z,11.62
2022-11-18T15:30:46.033Z,11.61
2022-11-18T15:33:18.463Z,11.60
2022-11-18T15:35:51.958Z,11.58
2022-11-18T15:38:25.095Z,11.53
2022-11-18T15:40:58.435Z,11.49
2022-11-18T15:43:31.127Z,11.43
2022-11-18T15:46:03.883Z,11.39
2022-11-18T15:48:36.783Z,11.37
2022-11-18T15:51:12.158Z,11.32
2022-11-18T15:53:43.291Z,11.31
2022-11-18T15:56:26.198Z,11.30
2022-11-18T15:59:00.808Z,11.29
2022-11-18T16:01:35.756Z,11.29
2022-11-18T16:04:11.668Z,11.28
2022-11-18T16:06:43.644Z,11.27
2022-11-18T16:09:18.024Z,11.22
2022-11-18T16:12:08.423Z,11.22
2022-11-18T16:14:41.086Z,11.21
2022-11-18T16:17:13.447Z,11.21
2022-11-18T16:19:46.627Z,11.22
2022-11-18T16:22:20.322Z,11.23
2022-11-18T16:24:53.840Z,11.26
2022-11-18T16:27:26.755Z,11.27
2022-11-18T16:29:59.748Z,11.28
2022-11-18T16:32:33.822Z,11.30
2022-11-18T16:35:07.149Z,11.31
2022-11-18T16:37:39.999Z,11.32
2022-11-18T16:40:14.350Z,11.32
2022-11-18T16:42:49.457Z,11.34
2022-11-18T16:45:23.137Z,11.37
2022-11-18T16:47:55.727Z,11.39
2022-11-18T16:50:29.330Z,11.41
2022-11-18T16:53:02.062Z,11.43
2022-11-18T16:55:34.778Z,11.46
2022-11-18T16:58:08.157Z,11.44
2022-11-18T17:01:09.627Z,11.44
2022-11-18T17:03:35.870Z,11.44
2022-11-18T17:06:10.146Z,11.43
2022-11-18T17:08:43.313Z,11.41
2022-11-18T17:11:16.835Z,11.39
2022-11-18T17:13:53.330Z,11.39
2022-11-18T17:16:30.261Z,11.36
2022-11-18T17:19:08.560Z,11.35
2022-11-18T17:21:45.399Z,11.31
2022-11-18T17:24:22.472Z,11.29
2022-11-18T17:26:56.687Z,11.29
2022-11-18T17:29:33.351Z,11.32
2022-11-18T17:32:07.795Z,11.35
2022-11-18T17:34:41.977Z,11.37
2022-11-18T17:37:18.011Z,11.40
2022-11-18T17:39:51.768Z,11.41
2022-11-18T17:42:25.898Z,11.41
2022-11-18T17:44:59.006Z,11.40
2022-11-18T17:47:31.992Z,11.38
2022-11-18T17:50:04.773Z,11.36
2022-11-18T17:52:37.677Z,11.36
2022-11-18T17:55:11.821Z,11.33
2022-11-18T17:57:45.084Z,11.28
2022-11-18T18:00:19.916Z,11.25
2022-11-18T18:02:54.473Z,11.22
2022-11-18T18:05:29.520Z,11.22
2022-11-18T18:08:04.591Z,11.23
2022-11-18T18:10:39.590Z,11.24
2022-11-18T18:13:31.221Z,11.24
2022-11-18T18:16:04.855Z,11.24
2022-11-18T18:18:37.704Z,11.26
2022-11-18T18:21:13.045Z,11.26
2022-11-18T18:23:47.933Z,11.24
2022-11-18T18:26:24.208Z,11.22
2022-11-18T18:29:01.322Z,11.17
2022-11-18T18:31:36.816Z,11.11
2022-11-18T18:34:09.827Z,11.07
2022-11-18T18:36:42.475Z,11.02
2022-11-18T18:39:14.896Z,10.98
2022-11-18T18:41:49.322Z,10.97
2022-11-18T18:44:22.279Z,10.96
2022-11-18T18:46:56.132Z,10.96
2022-11-18T18:49:29.990Z,10.95
2022-11-18T18:52:03.446Z,10.96
2022-11-18T18:54:37.178Z,10.98
2022-11-18T18:57:09.779Z,11.00
2022-11-18T18:59:43.043Z,10.99
2022-11-18T19:02:16.627Z,11.00
2022-11-18T19:04:50.492Z,11.01
2022-11-18T19:07:24.015Z,11.03
2022-11-18T19:09:56.747Z,11.05
2022-11-18T19:12:44.622Z,11.06
2022-11-18T19:15:18.052Z,11.05
2022-11-18T19:17:50.901Z,11.06
2022-11-18T19:20:36.952Z,11.07
2022-11-18T19:23:10.734Z,11.06
2022-11-18T19:25:44.143Z,11.05
2022-11-18T19:28:16.727Z,11.05
2022-11-18T19:30:50.018Z,11.05
2022-11-18T19:33:22.393Z,11.05
2022-11-18T19:35:55.431Z,11.05
2022-11-18T19:38:28.879Z,11.05
2022-11-18T19:41:05.458Z,11.05
2022-11-18T19:43:39.081Z,11.06
2022-11-18T19:46:13.671Z,11.05
2022-11-18T19:48:51.251Z,11.01
2022-11-18T19:51:24.766Z,10.96
2022-11-18T19:53:59.838Z,10.93
2022-11-18T19:56:32.339Z,10.93
2022-11-18T19:59:05.053Z,10.94
2022-11-18T20:01:37.452Z,10.97
2022-11-18T20:04:10.862Z,10.98
2022-11-18T20:06:44.241Z,10.98
2022-11-18T20:09:16.857Z,10.92
2022-11-18T20:11:49.892Z,10.80
2022-11-18T20:14:23.860Z,10.68
2022-11-18T20:16:56.307Z,10.58
2022-11-18T20:19:29.285Z,10.49
2022-11-18T20:22:02.599Z,10.41
2022-11-18T20:24:35.067Z,10.38
2022-11-18T20:27:07.397Z,10.36
2022-11-18T20:29:39.812Z,10.36
2022-11-18T20:32:12.140Z,10.37
2022-11-18T20:34:45.125Z,10.40
2022-11-18T20:37:19.005Z,10.43
2022-11-18T20:39:52.932Z,10.40
2022-11-18T20:42:44.233Z,10.31
2022-11-18T20:45:17.970Z,10.24
2022-11-18T20:47:50.439Z,10.16
2022-11-18T20:50:23.438Z,10.13
2022-11-18T20:52:56.114Z,10.13
2022-11-18T20:55:30.103Z,10.12
2022-11-18T20:58:05.535Z,10.10
2022-11-18T21:00:38.329Z,10.11
2022-11-18T21:03:12.567Z,10.09
2022-11-18T21:05:45.769Z,10.04
2022-11-18T21:08:18.537Z,10.03
2022-11-18T21:10:50.922Z,10.03
2022-11-18T21:13:41.164Z,10.03
2022-11-18T21:16:13.924Z,10.00
2022-11-18T21:18:46.832Z,10.02
2022-11-18T21:21:37.651Z,10.05
2022-11-18T21:24:11.677Z,10.06
2022-11-18T21:26:44.778Z,10.06
2022-11-18T21:29:19.718Z,10.06
2022-11-18T21:31:53.451Z,10.04
2022-11-18T21:34:26.742Z,10.04
2022-11-18T21:36:59.957Z,10.06
2022-11-18T21:39:34.600Z,10.05
2022-11-18T21:42:08.332Z,9.99
2022-11-18T21:44:41.482Z,9.98
2022-11-18T21:47:14.183Z,9.96
2022-11-18T21:49:46.515Z,9.91
2022-11-18T21:52:19.251Z,9.82
2022-11-18T21:54:51.701Z,9.80
2022-11-18T21:57:24.948Z,9.82
2022-11-18T21:59:57.705Z,9.87
2022-11-18T22:02:30.551Z,9.90
2022-11-18T22:05:06.917Z,9.92
2022-11-18T22:07:40.662Z,9.85
2022-11-18T22:10:14.603Z,9.83
2022-11-18T22:12:49.197Z,9.82
2022-11-18T22:15:22.192Z,9.78
2022-11-18T22:17:54.643Z,9.80
2022-11-18T22:20:27.172Z,9.84
2022-11-18T22:22:59.451Z,9.86
2022-11-18T22:25:33.015Z,9.87
2022-11-18T22:28:06.255Z,9.87
2022-11-18T22:30:38.849Z,9.88
2022-11-18T22:33:11.167Z,9.85
2022-11-18T22:35:43.654Z,9.87
2022-11-18T22:38:16.546Z,9.90
2022-11-18T22:40:49.369Z,9.92
2022-11-18T22:43:21.672Z,9.95
2022-11-18T22:46:02.727Z,9.99
2022-11-18T22:48:36.202Z,10.00
2022-11-18T22:51:10.516Z,9.99
2022-11-18T22:53:44.019Z,9.96
2022-11-18T22:56:18.124Z,9.95
2022-11-18T22:58:51.248Z,9.93
2022-11-18T23:01:25.341Z,9.92
2022-11-18T23:03:57.875Z,9.91
2022-11-18T23:06:31.506Z,9.92
2022-11-18T23:09:03.966Z,9.90
2022-11-18T23:11:54.226Z,9.86
2022-11-18T23:14:28.032Z,9.86
2022-11-18T23:17:01.278Z,9.83
2022-11-18T23:19:33.823Z,9.81
2022-11-18T23:22:06.403Z,9.78
2022-11-18T23:24:40.089Z,9.77
2022-11-18T23:27:13.591Z,9.76
2022-11-18T23:29:47.272Z,9.73
2022-11-18T23:32:21.650Z,9.71
2022-11-18T23:34:54.378Z,9.67
2022-11-18T23:37:27.252Z,9.65
2022-11-18T23:39:59.668Z,9.64
2022-11-18T23:42:33.667Z,9.62
2022-11-18T23:45:09.583Z,9.63
2022-11-18T23:47:40.196Z,9.64
2022-11-18T23:50:13.251Z,9.65
2022-11-18T23:52:46.847Z,9.69
2022-11-18T23:55:19.935Z,9.73
2022-11-18T23:57:54.414Z,9.77
